createdAt,value
2022-11-28T00:01:43.956Z,101155.78
2022-11-28T00:04:13.403Z,101152.80
2022-11-28T00:06:50.191Z,101152.59
2022-11-28T00:09:20.725Z,101150.39
2022-11-28T00:11:51.281Z,101147.79
2022-11-28T00:14:20.593Z,101144.67
2022-11-28T00:16:49.578Z,101138.78
2022-11-28T00:19:18.518Z,101141.23
2022-11-28T00:21:47.348Z,101138.20
2022-11-28T00:24:15.935Z,101136.45
2022-11-28T00:26:44.639Z,101136.63
2022-11-28T00:29:13.285Z,101138.13
2022-11-28T00:31:43.692Z,101137.25
2022-11-28T00:34:13.967Z,101141.69
2022-11-28T00:36:43.588Z,101142.27
2022-11-28T00:39:12.034Z,101142.76
2022-11-28T00:41:41.212Z,101142.31
2022-11-28T00:44:09.710Z,101141.69
2022-11-28T00:46:38.343Z,101138.30
2022-11-28T00:49:07.129Z,101132.84
2022-11-28T00:51:36.388Z,101128.77
2022-11-28T00:54:06.650Z,101124.44
2022-11-28T00:56:41.050Z,101116.56
2022-11-28T00:59:09.902Z,101110.41
2022-11-28T01:01:41.544Z,101106.19
2022-11-28T01:04:13.898Z,101101.10
2022-11-28T01:06:46.434Z,101097.32
2022-11-28T01:09:23.206Z,101100.11
2022-11-28T01:11:53.662Z,101100.67
2022-11-28T01:14:24.310Z,101097.41
2022-11-28T01:16:53.106Z,101096.64
2022-11-28T01:19:22.333Z,101092.06
2022-11-28T01:21:51.346Z,101089.08
2022-11-28T01:24:20.156Z,101087.79
2022-11-28T01:26:48.795Z,101087.30
2022-11-28T01:29:17.662Z,101087.85
2022-11-28T01:31:46.430Z,101086.80
2022-11-28T01:34:15.163Z,101084.90
2022-11-28T01:36:43.898Z,101089.58
2022-11-28T01:39:13.166Z,101091.52
2022-11-28T01:41:42.877Z,101089.71
2022-11-28T01:44:17.606Z,101088.41
2022-11-28T01:46:46.053Z,101080.79
2022-11-28T01:49:32.975Z,101074.21
2022-11-28T01:52:06.190Z,101060.46
2022-11-28T01:54:36.539Z,101057.89
2022-11-28T01:57:09.362Z,101063.41
2022-11-28T01:59:43.235Z,101067.56
2022-11-28T02:02:19.632Z,101068.59
2022-11-28T02:04:48.926Z,101071.39
2022-11-28T02:07:17.931Z,101072.95
2022-11-28T02:09:46.734Z,101072.23
2022-11-28T02:12:35.178Z,101069.14
2022-11-28T02:15:18.956Z,101068.96
2022-11-28T02:18:19.552Z,101069.15
2022-11-28T02:21:12.419Z,101070.90
2022-11-28T02:23:50.631Z,101061.73
2022-11-28T02:26:32.001Z,101053.96
2022-11-28T02:29:32.968Z,101048.08
2022-11-28T02:32:16.670Z,101046.85
2022-11-28T02:34:47.052Z,101043.60
2022-11-28T02:37:46.209Z,101039.25
2022-11-28T02:40:20.441Z,101035.36
2022-11-28T02:43:32.701Z,101029.50
2022-11-28T02:46:16.552Z,101029.17
2022-11-28T02:48:58.825Z,101024.38
2022-11-28T02:51:43.778Z,101025.73
2022-11-28T02:57:07.291Z,101018.70
2022-11-28T02:59:39.221Z,101014.08
2022-11-28T03:02:23.821Z,101016.41
2022-11-28T03:04:55.332Z,101015.63
2022-11-28T03:07:51.674Z,101012.81
2022-11-28T03:10:57.641Z,101010.27
2022-11-28T03:13:40.968Z,101005.84
2022-11-28T03:16:36.953Z,100996.33
2022-11-28T03:19:16.718Z,100988.02
2022-11-28T03:22:01.334Z,100976.72
2022-11-28T03:24:38.691Z,100973.14
2022-11-28T03:27:37.180Z,100970.08
2022-11-28T03:30:16.362Z,100970.79
2022-11-28T03:32:52.114Z,100970.40
2022-11-28T03:35:25.366Z,100966.06
2022-11-28T03:37:58.717Z,100969.20
2022-11-28T03:40:32.337Z,100969.93
2022-11-28T03:43:06.899Z,100967.00
2022-11-28T03:45:45.354Z,100965.09
2022-11-28T03:48:26.425Z,100958.91
2022-11-28T03:51:03.491Z,100952.01
2022-11-28T03:53:55.104Z,100949.88
2022-11-28T03:56:59.099Z,100954.15
2022-11-28T03:59:33.025Z,100956.83
2022-11-28T04:02:29.210Z,100951.14
2022-11-28T04:05:02.347Z,100940.65
2022-11-28T04:07:40.298Z,100936.52
2022-11-28T04:10:22.985Z,100933.33
2022-11-28T04:13:19.718Z,100931.25
2022-11-28T04:16:15.460Z,100933.91
2022-11-28T04:19:11.093Z,100941.20
2022-11-28T04:21:58.123Z,100941.06
2022-11-28T04:24:32.598Z,100936.45
2022-11-28T04:27:06.549Z,100939.59
2022-11-28T04:30:01.491Z,100931.50
2022-11-28T04:32:32.924Z,100928.94
2022-11-28T04:35:12.686Z,100931.91
2022-11-28T04:37:46.206Z,100935.92
2022-11-28T04:40:16.319Z,100947.87
2022-11-28T04:42:54.245Z,100953.75
2022-11-28T04:45:31.322Z,100952.76
2022-11-28T04:48:00.349Z,100956.26
2022-11-28T04:50:37.181Z,100964.03
2022-11-28T04:53:12.949Z,100956.50
2022-11-28T04:55:51.386Z,100948.60
2022-11-28T04:58:31.214Z,100943.50
2022-11-28T05:01:02.011Z,100936.22
2022-11-28T05:03:32.118Z,100934.11
2022-11-28T05:06:00.779Z,100924.27
2022-11-28T05:08:29.564Z,100916.17
2022-11-28T05:10:58.270Z,100912.00
2022-11-28T05:13:27.131Z,100909.69
2022-11-28T05:15:56.036Z,100906.41
2022-11-28T05:18:24.934Z,100901.88
2022-11-28T05:20:53.657Z,100904.19
2022-11-28T05:23:21.923Z,100907.98
2022-11-28T05:25:50.250Z,100913.70
2022-11-28T05:28:19.072Z,100913.13
2022-11-28T05:30:57.661Z,100904.64
2022-11-28T05:33:26.573Z,100903.23
2022-11-28T05:35:55.106Z,100901.13
2022-11-28T05:38:23.977Z,100901.27
2022-11-28T05:40:52.646Z,100903.80
2022-11-28T05:43:21.362Z,100904.28
2022-11-28T05:45:50.180Z,100902.77
2022-11-28T05:48:18.994Z,100895.55
2022-11-28T05:50:47.536Z,100889.67
2022-11-28T05:53:16.396Z,100888.30
2022-11-28T05:55:45.564Z,100887.40
2022-11-28T05:58:14.262Z,100883.73
2022-11-28T06:00:42.962Z,100874.29
2022-11-28T06:03:11.550Z,100870.77
2022-11-28T06:05:43.561Z,100868.18
2022-11-28T06:08:13.929Z,100866.49
2022-11-28T06:10:42.872Z,100856.52
2022-11-28T06:13:11.800Z,100855.15
2022-11-28T06:15:45.988Z,100859.75
2022-11-28T06:18:14.672Z,100863.84
2022-11-28T06:20:43.324Z,100862.58
2022-11-28T06:23:11.874Z,100863.05
2022-11-28T06:25:40.395Z,100860.86
2022-11-28T06:28:09.179Z,100860.06
2022-11-28T06:30:38.074Z,100862.55
2022-11-28T06:33:06.637Z,100858.95
2022-11-28T06:35:35.190Z,100855.38
2022-11-28T06:38:03.914Z,100855.88
2022-11-28T06:40:33.237Z,100852.96
2022-11-28T06:43:02.156Z,100852.75
2022-11-28T06:45:30.629Z,100850.26
2022-11-28T06:47:59.588Z,100849.00
2022-11-28T06:50:28.281Z,100847.68
2022-11-28T06:52:57.337Z,100841.33
2022-11-28T06:55:25.980Z,100834.70
2022-11-28T06:57:54.577Z,100832.51
2022-11-28T07:00:23.121Z,100831.34
2022-11-28T07:02:51.858Z,100828.73
2022-11-28T07:05:22.377Z,100825.71
2022-11-28T07:07:54.525Z,100817.88
2022-11-28T07:10:24.951Z,100821.73
2022-11-28T07:13:19.291Z,100822.96
2022-11-28T07:15:54.064Z,100820.13
2022-11-28T07:18:22.843Z,100818.39
2022-11-28T07:20:51.657Z,100815.44
2022-11-28T07:23:20.178Z,100808.31
2022-11-28T07:25:48.876Z,100810.30
2022-11-28T07:28:21.926Z,100808.66
2022-11-28T07:30:58.948Z,100809.25
2022-11-28T07:33:28.151Z,100810.87
2022-11-28T07:35:56.869Z,100801.58
2022-11-28T07:38:25.609Z,100798.97
2022-11-28T07:40:54.267Z,100795.93
2022-11-28T07:43:22.935Z,100794.98
2022-11-28T07:46:01.151Z,100792.67
2022-11-28T07:48:30.220Z,100792.34
2022-11-28T07:50:58.914Z,100793.00
2022-11-28T07:53:27.466Z,100793.64
2022-11-28T07:55:55.847Z,100798.23
2022-11-28T07:58:24.391Z,100797.37
2022-11-28T08:00:53.189Z,100792.85
2022-11-28T08:03:21.589Z,100789.71
2022-11-28T08:05:51.047Z,100791.01
2022-11-28T08:08:20.766Z,100787.57
2022-11-28T08:10:49.259Z,100778.34
2022-11-28T08:13:17.941Z,100765.36
2022-11-28T08:15:47.355Z,100759.84
2022-11-28T08:18:15.965Z,100765.17
2022-11-28T08:20:44.845Z,100774.80
2022-11-28T08:23:13.521Z,100778.98
2022-11-28T08:25:42.295Z,100780.73
2022-11-28T08:28:10.942Z,100779.90
2022-11-28T08:30:39.951Z,100780.77
2022-11-28T08:33:08.802Z,100780.30
2022-11-28T08:35:40.491Z,100784.59
2022-11-28T08:38:09.152Z,100785.79
2022-11-28T08:40:38.050Z,100788.02
2022-11-28T08:43:08.445Z,100793.92
2022-11-28T08:45:40.481Z,100790.55
2022-11-28T08:48:09.120Z,100792.86
2022-11-28T08:50:37.793Z,100792.97
2022-11-28T08:53:07.944Z,100788.15
2022-11-28T08:55:41.624Z,100781.27
2022-11-28T08:58:10.608Z,100774.73
2022-11-28T09:00:39.759Z,100768.80
2022-11-28T09:03:08.254Z,100768.97
2022-11-28T09:05:36.908Z,100774.92
2022-11-28T09:08:10.153Z,100778.54
2022-11-28T09:10:41.424Z,100771.31
2022-11-28T09:13:10.726Z,100754.75
2022-11-28T09:15:51.282Z,100744.92
2022-11-28T09:18:21.670Z,100751.48
2022-11-28T09:20:50.363Z,100755.98
2022-11-28T09:23:18.909Z,100766.10
2022-11-28T09:25:47.897Z,100773.41
2022-11-28T09:28:16.492Z,100768.75
2022-11-28T09:30:45.023Z,100773.70
2022-11-28T09:33:14.398Z,100773.44
2022-11-28T09:35:42.999Z,100769.51
2022-11-28T09:38:11.440Z,100771.13
2022-11-28T09:40:43.540Z,100768.70
2022-11-28T09:43:30.721Z,100770.63
2022-11-28T09:46:02.635Z,100769.46
2022-11-28T09:48:41.285Z,100771.36
2022-11-28T09:51:44.614Z,100777.02
2022-11-28T09:54:24.835Z,100781.84
2022-11-28T09:56:53.577Z,100781.04
2022-11-28T09:59:28.595Z,100784.48
2022-11-28T10:02:15.409Z,100786.92
2022-11-28T10:05:12.354Z,100787.47
2022-11-28T10:07:55.299Z,100787.45
2022-11-28T10:11:02.189Z,100784.83
2022-11-28T10:14:07.772Z,100780.88
2022-11-28T10:16:47.142Z,100780.23
2022-11-28T10:19:52.386Z,100774.63
2022-11-28T10:22:17.605Z,100775.20
2022-11-28T10:27:50.741Z,100773.77
2022-11-28T10:30:27.703Z,100773.09
2022-11-28T10:33:09.254Z,100768.64
2022-11-28T10:35:57.688Z,100765.75
2022-11-28T10:38:28.756Z,100769.08
2022-11-28T10:41:18.609Z,100764.70
2022-11-28T10:44:00.310Z,100763.78
2022-11-28T10:46:44.878Z,100765.80
2022-11-28T10:49:35.008Z,100766.25
2022-11-28T10:52:31.178Z,100759.83
2022-11-28T10:55:21.308Z,100763.05
2022-11-28T10:58:05.021Z,100763.70
2022-11-28T11:00:35.255Z,100766.92
2022-11-28T11:03:05.362Z,100768.91
2022-11-28T11:05:36.502Z,100768.35
2022-11-28T11:08:25.008Z,100767.59
2022-11-28T11:11:01.294Z,100768.95
2022-11-28T11:13:33.423Z,100768.42
2022-11-28T11:16:07.269Z,100771.27
2022-11-28T11:18:51.439Z,100774.34
2022-11-28T11:21:28.418Z,100779.67
2022-11-28T11:24:17.092Z,100783.22
2022-11-28T11:26:50.297Z,100791.41
2022-11-28T11:29:31.363Z,100792.05
2022-11-28T11:32:04.590Z,100796.41
2022-11-28T11:34:39.379Z,100793.30
2022-11-28T11:37:30.088Z,100792.61
2022-11-28T11:39:59.108Z,100788.14
2022-11-28T11:42:33.771Z,100786.56
2022-11-28T11:45:27.549Z,100784.14
2022-11-28T11:47:56.460Z,100785.66
2022-11-28T11:50:28.522Z,100785.66
2022-11-28T11:53:04.501Z,100789.27
2022-11-28T11:55:39.172Z,100790.61
2022-11-28T11:58:13.697Z,100790.40
2022-11-28T12:00:42.596Z,100790.40
2022-11-28T12:03:38.093Z,100793.09
2022-11-28T12:06:15.713Z,100787.04
2022-11-28T12:08:54.086Z,100787.70
2022-11-28T12:11:33.323Z,100790.41
2022-11-28T12:14:22.783Z,100790.40
2022-11-28T12:17:46.858Z,100787.39
2022-11-28T12:20:10.635Z,100790.33
2022-11-28T12:22:42.368Z,100799.30
2022-11-28T12:25:28.895Z,100796.75
2022-11-28T12:28:06.595Z,100797.89
2022-11-28T12:31:11.726Z,100797.73
2022-11-28T12:34:04.786Z,100804.10
2022-11-28T12:37:14.350Z,100805.02
2022-11-28T12:39:58.197Z,100800.65
2022-11-28T12:42:46.035Z,100804.63
2022-11-28T12:45:31.624Z,100808.22
2022-11-28T12:48:07.188Z,100814.20
2022-11-28T12:50:43.574Z,100816.94
2022-11-28T12:53:12.005Z,100816.27
2022-11-28T12:56:07.327Z,100821.20
2022-11-28T12:58:43.702Z,100826.04
2022-11-28T13:01:30.539Z,100834.15
2022-11-28T13:04:14.036Z,100837.27
2022-11-28T13:07:08.237Z,100844.29
2022-11-28T13:09:44.988Z,100839.89
2022-11-28T13:12:47.859Z,100841.55
2022-11-28T13:15:45.749Z,100846.54
2022-11-28T13:18:29.969Z,100848.58
2022-11-28T13:21:29.475Z,100848.44
2022-11-28T13:24:18.231Z,100852.91
2022-11-28T13:27:12.177Z,100848.61
2022-11-28T13:30:08.017Z,100854.25
2022-11-28T13:32:46.618Z,100855.79
2022-11-28T13:35:20.616Z,100852.27
2022-11-28T13:38:42.522Z,100859.00
2022-11-28T13:42:05.914Z,100859.61
2022-11-28T13:44:22.003Z,100855.48
2022-11-28T13:46:51.602Z,100860.60
2022-11-28T13:49:31.277Z,100866.41
2022-11-28T13:52:30.319Z,100871.91
2022-11-28T13:54:59.053Z,100876.05
2022-11-28T13:57:38.720Z,100876.72
2022-11-28T14:00:23.602Z,100876.19
2022-11-28T14:02:57.010Z,100876.15
2022-11-28T14:05:30.401Z,100879.21
2022-11-28T14:07:59.990Z,100877.78
2022-11-28T14:10:53.590Z,100875.66
2022-11-28T14:13:24.080Z,100873.41
2022-11-28T14:16:07.743Z,100875.48
2022-11-28T14:21:42.381Z,100869.38
2022-11-28T14:24:37.574Z,100875.34
2022-11-28T14:27:08.569Z,100877.80
2022-11-28T14:29:42.521Z,100879.61
2022-11-28T14:32:31.824Z,100884.34
2022-11-28T14:35:01.169Z,100888.16
2022-11-28T14:37:36.809Z,100889.64
2022-11-28T14:40:25.205Z,100890.64
2022-11-28T14:43:26.644Z,100894.44
2022-11-28T14:46:20.277Z,100893.03
2022-11-28T14:49:01.069Z,100886.52
2022-11-28T14:52:16.012Z,100885.99
2022-11-28T14:54:45.143Z,100889.23
2022-11-28T14:57:24.621Z,100890.73
2022-11-28T14:59:54.544Z,100895.49
2022-11-28T15:02:57.493Z,100901.58
2022-11-28T15:05:44.202Z,100902.73
2022-11-28T15:08:34.732Z,100900.08
2022-11-28T15:11:21.657Z,100897.23
2022-11-28T15:13:56.493Z,100902.10
2022-11-28T15:16:25.998Z,100899.64
2022-11-28T15:18:59.483Z,100898.48
2022-11-28T15:21:28.007Z,100903.05
2022-11-28T15:23:56.895Z,100903.02
2022-11-28T15:26:34.627Z,100901.29
2022-11-28T15:29:18.947Z,100910.92
2022-11-28T15:31:49.422Z,100913.77
2022-11-28T15:34:27.964Z,100917.41
2022-11-28T15:37:02.510Z,100917.11
2022-11-28T15:39:40.776Z,100916.34
2022-11-28T15:42:20.366Z,100913.48
2022-11-28T15:44:50.789Z,100915.44
2022-11-28T15:47:21.717Z,100921.98
2022-11-28T15:50:18.008Z,100926.86
2022-11-28T15:53:06.031Z,100927.25
2022-11-28T15:55:35.614Z,100924.08
2022-11-28T15:58:24.596Z,100924.65
2022-11-28T16:00:59.207Z,100929.02
2022-11-28T16:03:32.732Z,100931.96
2022-11-28T16:06:01.977Z,100937.59
2022-11-28T16:08:35.058Z,100938.64
2022-11-28T16:11:07.186Z,100942.59
2022-11-28T16:13:38.530Z,100944.33
2022-11-28T16:16:17.537Z,100941.77
2022-11-28T16:18:57.966Z,100941.61
2022-11-28T16:21:52.468Z,100948.89
2022-11-28T16:24:39.004Z,100952.33
2022-11-28T16:27:07.829Z,100951.94
2022-11-28T16:29:38.111Z,100954.34
2022-11-28T16:32:29.744Z,100956.52
2022-11-28T16:35:01.994Z,100960.02
2022-11-28T16:37:32.979Z,100962.98
2022-11-28T16:40:15.923Z,100968.19
2022-11-28T16:42:52.885Z,100974.55
2022-11-28T16:45:34.022Z,100977.96
2022-11-28T16:48:09.722Z,100972.23
2022-11-28T16:50:38.821Z,100965.48
2022-11-28T16:53:07.264Z,100968.04
2022-11-28T16:55:35.724Z,100972.11
2022-11-28T16:58:15.522Z,100969.52
2022-11-28T17:00:48.886Z,100976.72
2022-11-28T17:03:45.141Z,100977.58
2022-11-28T17:06:18.591Z,100976.42
2022-11-28T17:08:47.293Z,100976.91
2022-11-28T17:11:20.099Z,100982.02
2022-11-28T17:13:48.857Z,100984.50
2022-11-28T17:16:20.021Z,100983.29
2022-11-28T17:18:49.030Z,100983.62
2022-11-28T17:21:24.140Z,100986.50
2022-11-28T17:23:52.495Z,100989.35
2022-11-28T17:26:21.202Z,100991.55
2022-11-28T17:28:49.391Z,100994.65
2022-11-28T17:31:19.147Z,100996.60
2022-11-28T17:33:47.897Z,100998.69
2022-11-28T17:36:16.562Z,100995.45
2022-11-28T17:38:45.974Z,100997.20
2022-11-28T17:41:15.498Z,100995.98
2022-11-28T17:43:44.324Z,100993.12
2022-11-28T17:46:13.095Z,100993.08
2022-11-28T17:48:41.892Z,100995.03
2022-11-28T17:51:11.843Z,100991.61
2022-11-28T17:53:40.540Z,100992.63
2022-11-28T17:56:14.415Z,100995.17
2022-11-28T17:58:43.149Z,100999.98
2022-11-28T18:01:18.840Z,100997.33
2022-11-28T18:03:47.533Z,100999.22
2022-11-28T18:06:20.602Z,101004.25
2022-11-28T18:08:50.713Z,101006.16
2022-11-28T18:11:22.322Z,101010.17
2022-11-28T18:13:50.992Z,101010.58
2022-11-28T18:16:22.852Z,101015.98
2022-11-28T18:18:51.343Z,101015.05
2022-11-28T18:21:19.978Z,101020.23
2022-11-28T18:23:53.232Z,101019.95
2022-11-28T18:26:25.122Z,101021.19
2022-11-28T18:28:54.483Z,101022.77
2022-11-28T18:31:25.993Z,101015.94
2022-11-28T18:34:01.520Z,101016.45
2022-11-28T18:36:31.708Z,101015.85
2022-11-28T18:39:05.121Z,101016.95
2022-11-28T18:41:33.909Z,101015.84
2022-11-28T18:44:05.507Z,101019.75
2022-11-28T18:46:35.113Z,101023.98
2022-11-28T18:49:04.379Z,101030.64
2022-11-28T18:51:36.556Z,101029.66
2022-11-28T18:54:06.924Z,101027.31
2022-11-28T18:56:35.962Z,101028.46
2022-11-28T18:59:05.322Z,101032.73
2022-11-28T19:01:36.491Z,101027.95
2022-11-28T19:04:08.742Z,101026.91
2022-11-28T19:06:39.516Z,101023.59
2022-11-28T19:09:10.963Z,101022.69
2022-11-28T19:11:40.377Z,101021.94
2022-11-28T19:14:09.279Z,101022.42
2022-11-28T19:16:39.140Z,101026.02
2022-11-28T19:19:07.897Z,101032.24
2022-11-28T19:21:38.048Z,101037.41
2022-11-28T19:24:09.074Z,101036.60
2022-11-28T19:26:38.977Z,101040.77
2022-11-28T19:29:08.223Z,101041.15
2022-11-28T19:31:38.404Z,101048.56
2022-11-28T19:34:15.773Z,101047.19
2022-11-28T19:36:46.970Z,101049.02
2022-11-28T19:39:26.169Z,101045.73
2022-11-28T19:41:55.568Z,101042.58
2022-11-28T19:44:25.630Z,101049.62
2022-11-28T19:46:54.769Z,101050.42
2022-11-28T19:49:25.063Z,101048.66
2022-11-28T19:51:55.354Z,101047.91
2022-11-28T19:54:24.026Z,101050.51
2022-11-28T19:56:52.974Z,101053.97
2022-11-28T19:59:21.903Z,101057.70
2022-11-28T20:01:50.973Z,101055.34
2022-11-28T20:04:21.249Z,101052.60
2022-11-28T20:06:49.827Z,101054.70
2022-11-28T20:09:18.524Z,101052.18
2022-11-28T20:11:47.363Z,101050.32
2022-11-28T20:14:19.279Z,101049.66
2022-11-28T20:16:48.290Z,101051.17
2022-11-28T20:19:17.042Z,101052.85
2022-11-28T20:21:45.695Z,101050.88
2022-11-28T20:24:14.456Z,101051.85
2022-11-28T20:26:44.676Z,101053.71
2022-11-28T20:29:18.864Z,101052.98
2022-11-28T20:31:48.981Z,101052.70
2022-11-28T20:34:19.205Z,101053.17
2022-11-28T20:36:52.518Z,101056.41
2022-11-28T20:39:21.834Z,101057.86
2022-11-28T20:41:50.426Z,101061.52
2022-11-28T20:44:19.915Z,101060.98
2022-11-28T20:46:50.751Z,101061.95
2022-11-28T20:49:19.847Z,101058.05
2022-11-28T20:51:49.196Z,101056.16
2022-11-28T20:54:18.220Z,101055.59
2022-11-28T20:59:37.055Z,101051.67
2022-11-28T21:02:05.788Z,101054.96
2022-11-28T21:04:34.573Z,101058.83
2022-11-28T21:07:03.060Z,101060.98
2022-11-28T21:09:31.829Z,101058.88
2022-11-28T21:12:00.397Z,101061.36
2022-11-28T21:14:32.567Z,101063.61
2022-11-28T21:17:02.364Z,101062.78
2022-11-28T21:19:31.308Z,101067.96
2022-11-28T21:22:03.348Z,101067.97
2022-11-28T21:24:31.872Z,101070.77
2022-11-28T21:27:00.473Z,101069.04
2022-11-28T21:29:29.475Z,101068.53
2022-11-28T21:31:58.009Z,101070.92
2022-11-28T21:34:26.925Z,101070.52
2022-11-28T21:36:55.911Z,101075.63
2022-11-28T21:39:24.648Z,101074.02
2022-11-28T21:41:53.352Z,101080.86
2022-11-28T21:44:22.087Z,101084.61
2022-11-28T21:46:50.732Z,101089.09
2022-11-28T21:49:19.399Z,101093.61
2022-11-28T21:51:48.001Z,101097.59
2022-11-28T21:54:16.743Z,101101.55
2022-11-28T21:56:45.425Z,101103.80
2022-11-28T21:59:14.078Z,101104.30
2022-11-28T22:01:42.917Z,101106.90
2022-11-28T22:04:12.664Z,101107.18
2022-11-28T22:06:41.733Z,101105.88
2022-11-28T22:09:12.750Z,101105.10
2022-11-28T22:11:41.885Z,101107.59
2022-11-28T22:14:10.594Z,101108.90
2022-11-28T22:16:41.247Z,101106.61
2022-11-28T22:19:10.713Z,101110.83
2022-11-28T22:21:55.524Z,101108.98
2022-11-28T22:24:24.979Z,101112.53
2022-11-28T22:26:54.356Z,101111.45
2022-11-28T22:29:23.207Z,101111.10
2022-11-28T22:31:52.049Z,101110.05
2022-11-28T22:34:20.724Z,101113.33
2022-11-28T22:36:49.355Z,101115.09
2022-11-28T22:39:18.239Z,101114.35
2022-11-28T22:41:47.062Z,101118.33
2022-11-28T22:44:15.742Z,101120.95
2022-11-28T22:46:48.602Z,101119.70
2022-11-28T22:49:17.367Z,101123.77
2022-11-28T22:51:46.175Z,101121.69
2022-11-28T22:54:19.039Z,101124.73
2022-11-28T22:56:47.823Z,101135.52
2022-11-28T22:59:18.135Z,101140.23
2022-11-28T23:01:46.819Z,101144.62
2022-11-28T23:04:15.730Z,101148.95
2022-11-28T23:06:44.344Z,101153.21
2022-11-28T23:09:15.847Z,101159.17
2022-11-28T23:11:44.335Z,101167.41
2022-11-28T23:14:15.983Z,101171.01
2022-11-28T23:16:46.067Z,101172.98
2022-11-28T23:19:19.148Z,101175.64
2022-11-28T23:21:51.093Z,101177.13
2022-11-28T23:24:22.604Z,101180.27
2022-11-28T23:26:52.176Z,101182.14
2022-11-28T23:29:21.211Z,101186.88
2022-11-28T23:31:49.928Z,101188.27
2022-11-28T23:34:18.724Z,101189.66
2022-11-28T23:36:48.470Z,101189.21
2022-11-28T23:39:20.683Z,101192.14
2022-11-28T23:41:50.500Z,101196.86
2022-11-28T23:44:21.096Z,101192.79
2022-11-28T23:46:50.056Z,101193.50
2022-11-28T23:49:19.052Z,101196.52
2022-11-28T23:51:47.883Z,101198.50
2022-11-28T23:54:16.576Z,101199.97
2022-11-28T23:56:45.543Z,101202.46
2022-11-28T23:59:14.834Z,101203.59
